createdAt,value
2023-02-15T00:00:30.123Z,67.5
2023-02-15T00:05:30.102Z,65
2023-02-15T00:10:30.111Z,80
2023-02-15T00:15:30.125Z,77.5
2023-02-15T00:20:30.120Z,70
2023-02-15T00:25:30.116Z,65
2023-02-15T00:30:30.212Z,50
2023-02-15T00:35:30.115Z,82.5
2023-02-15T00:40:30.113Z,75
2023-02-15T00:45:30.105Z,75
2023-02-15T00:50:30.110Z,50
2023-02-15T00:55:30.111Z,80
2023-02-15T01:00:30.097Z,102.5
2023-02-15T01:05:30.104Z,87.5
2023-02-15T01:10:30.108Z,72.5
2023-02-15T01:15:30.120Z,80
2023-02-15T01:20:30.117Z,90
2023-02-15T01:25:30.113Z,90
2023-02-15T01:30:30.111Z,77.5
2023-02-15T01:35:30.132Z,57.5
2023-02-15T01:40:30.122Z,75
2023-02-15T01:45:30.124Z,97.5
2023-02-15T01:50:30.125Z,82.5
2023-02-15T01:55:30.111Z,82.5
2023-02-15T02:00:30.110Z,75
2023-02-15T02:05:30.115Z,70
2023-02-15T02:10:30.117Z,75
2023-02-15T02:15:30.113Z,72.5
2023-02-15T02:20:30.123Z,55
2023-02-15T02:25:30.107Z,55
2023-02-15T02:30:30.206Z,77.5
2023-02-15T02:35:30.110Z,55
2023-02-15T02:40:30.110Z,35
2023-02-15T02:45:30.135Z,55
2023-02-15T02:50:30.143Z,50
2023-02-15T02:55:30.108Z,55
2023-02-15T03:00:30.089Z,60
2023-02-15T03:05:30.113Z,62.5
2023-02-15T03:10:30.114Z,62.5
2023-02-15T03:15:30.113Z,72.5
2023-02-15T03:20:30.105Z,60
2023-02-15T03:25:30.110Z,65
2023-02-15T03:30:30.176Z,87.5
2023-02-15T03:35:30.109Z,95
2023-02-15T03:40:30.115Z,105
2023-02-15T03:45:30.114Z,115
2023-02-15T03:50:30.117Z,110
2023-02-15T03:55:30.114Z,97.5
2023-02-15T04:00:30.113Z,107.5
2023-02-15T04:05:30.120Z,107.5
2023-02-15T04:10:30.246Z,117.5
2023-02-15T04:15:30.420Z,110
2023-02-15T04:20:30.105Z,97.5
2023-02-15T04:25:30.118Z,105
2023-02-15T04:30:30.154Z,105
2023-02-15T04:35:30.113Z,105
2023-02-15T04:40:30.106Z,85
2023-02-15T04:45:30.163Z,107.5
2023-02-15T04:50:30.105Z,100
2023-02-15T04:55:30.107Z,105
2023-02-15T05:00:30.109Z,100
2023-02-15T05:05:30.114Z,82.5
2023-02-15T05:10:30.114Z,115
2023-02-15T05:15:30.102Z,140
2023-02-15T05:20:30.105Z,117.5
2023-02-15T05:25:30.101Z,72.5
2023-02-15T05:30:30.253Z,47.5
2023-02-15T05:35:30.120Z,77.5
2023-02-15T05:40:30.121Z,160
2023-02-15T05:45:30.116Z,107.5
2023-02-15T05:50:30.108Z,110
2023-02-15T05:55:30.111Z,70
2023-02-15T06:00:30.117Z,102.5
2023-02-15T06:05:30.110Z,100
2023-02-15T06:10:30.126Z,167.5
2023-02-15T06:15:30.194Z,120
2023-02-15T06:20:30.113Z,117.5
2023-02-15T06:25:30.122Z,170
2023-02-15T06:30:30.243Z,197.5
2023-02-15T06:35:30.113Z,127.5
2023-02-15T06:40:30.110Z,115
2023-02-15T06:45:30.103Z,87.5
2023-02-15T06:50:30.102Z,125
2023-02-15T06:55:30.118Z,150
2023-02-15T07:00:30.098Z,155
2023-02-15T07:05:30.106Z,125
2023-02-15T07:10:30.107Z,150
2023-02-15T07:15:30.239Z,105
2023-02-15T07:20:30.232Z,100
2023-02-15T07:25:30.103Z,157.5
2023-02-15T07:30:30.224Z,182.5
2023-02-15T07:35:30.105Z,177.5
2023-02-15T07:40:30.092Z,125
2023-02-15T07:45:30.104Z,110
2023-02-15T07:50:30.121Z,157.5
2023-02-15T07:55:30.116Z,135
2023-02-15T08:00:30.114Z,120
2023-02-15T08:05:30.104Z,135
2023-02-15T08:10:30.148Z,210
2023-02-15T08:15:30.103Z,182.5
2023-02-15T08:20:30.114Z,187.5
2023-02-15T08:25:30.108Z,190
2023-02-15T08:30:30.223Z,187.5
2023-02-15T08:35:30.129Z,150
2023-02-15T08:40:30.109Z,75
2023-02-15T08:45:30.240Z,110
2023-02-15T08:50:30.128Z,160
2023-02-15T08:55:30.132Z,100
2023-02-15T09:00:30.123Z,105
2023-02-15T09:05:30.126Z,97.5
2023-02-15T09:10:30.124Z,82.5
2023-02-15T09:15:30.139Z,117.5
2023-02-15T09:20:30.127Z,112.5
2023-02-15T09:25:30.128Z,110
2023-02-15T09:30:30.203Z,117.5
2023-02-15T09:35:30.125Z,175
2023-02-15T09:40:30.129Z,210
2023-02-15T09:45:30.124Z,162.5
2023-02-15T09:50:30.112Z,180
2023-02-15T09:55:30.126Z,147.5
2023-02-15T10:00:30.133Z,210
2023-02-15T10:05:30.126Z,155
2023-02-15T10:10:30.119Z,150
2023-02-15T10:15:30.136Z,175
2023-02-15T10:20:30.136Z,127.5
2023-02-15T10:25:30.139Z,110
2023-02-15T10:30:32.396Z,120
2023-02-15T10:35:30.129Z,102.5
2023-02-15T10:40:30.106Z,127.5
2023-02-15T10:45:30.111Z,167.5
2023-02-15T10:50:30.114Z,177.5
2023-02-15T10:55:30.112Z,187.5
2023-02-15T11:00:30.120Z,152.5
2023-02-15T11:05:30.126Z,175
2023-02-15T11:10:30.153Z,175
2023-02-15T11:15:30.141Z,205
2023-02-15T11:20:30.129Z,195
2023-02-15T11:25:30.107Z,150
2023-02-15T11:30:30.167Z,167.5
2023-02-15T11:35:30.116Z,167.5
2023-02-15T11:40:30.120Z,182.5
2023-02-15T11:45:30.114Z,150
2023-02-15T11:50:30.108Z,147.5
2023-02-15T11:55:30.126Z,102.5
2023-02-15T12:00:30.097Z,105
2023-02-15T12:05:30.104Z,110
2023-02-15T12:10:30.120Z,120
2023-02-15T12:15:30.100Z,115
2023-02-15T12:20:30.092Z,160
2023-02-15T12:25:30.094Z,120
2023-02-15T12:30:30.182Z,127.5
2023-02-15T12:35:30.113Z,47.5
2023-02-15T12:40:31.553Z,47.5
2023-02-15T12:45:30.107Z,167.5
2023-02-15T12:50:34.504Z,215
2023-02-15T12:55:30.103Z,45
2023-02-15T13:00:30.162Z,57.5
2023-02-15T13:05:30.110Z,45
2023-02-15T13:10:30.104Z,67.5
2023-02-15T13:15:30.106Z,67.5
2023-02-15T13:20:30.108Z,117.5
2023-02-15T13:25:30.126Z,250
2023-02-15T13:30:30.228Z,125
2023-02-15T13:35:30.128Z,190
2023-02-15T13:40:30.105Z,150
2023-02-15T13:45:30.129Z,150
2023-02-15T13:50:30.180Z,265
2023-02-15T13:55:30.122Z,177.5
2023-02-15T14:00:30.130Z,195
2023-02-15T14:05:30.126Z,87.5
2023-02-15T14:10:30.122Z,120
2023-02-15T14:15:30.118Z,87.5
2023-02-15T14:20:30.108Z,105
2023-02-15T14:25:30.171Z,117.5
2023-02-15T14:30:30.627Z,192.5
2023-02-15T14:35:30.124Z,187.5
2023-02-15T14:40:30.210Z,177.5
2023-02-15T14:45:32.624Z,120
2023-02-15T14:50:30.137Z,77.5
2023-02-15T14:55:30.117Z,70
2023-02-15T15:00:30.111Z,30
2023-02-15T15:05:30.113Z,40
2023-02-15T15:10:30.102Z,75
2023-02-15T15:15:30.162Z,77.5
2023-02-15T15:20:30.120Z,42.5
2023-02-15T15:25:30.105Z,40
2023-02-15T15:30:30.172Z,347.5
2023-02-15T15:35:30.115Z,30
2023-02-15T15:40:30.114Z,65
2023-02-15T15:45:30.100Z,45
2023-02-15T15:50:30.109Z,62.5
2023-02-15T15:55:30.102Z,67.5
2023-02-15T16:00:30.106Z,60
2023-02-15T16:05:30.112Z,57.5
2023-02-15T16:10:30.095Z,45
2023-02-15T16:15:30.107Z,82.5
2023-02-15T16:20:30.110Z,60
2023-02-15T16:25:30.111Z,50
2023-02-15T16:30:30.121Z,0
2023-02-15T16:35:30.114Z,37.5
2023-02-15T16:40:30.103Z,57.5
2023-02-15T16:45:30.118Z,52.5
2023-02-15T16:50:30.123Z,60
2023-02-15T16:55:30.110Z,40
2023-02-15T17:00:30.138Z,35
2023-02-15T17:05:30.110Z,30
2023-02-15T17:10:30.120Z,17.5
2023-02-15T17:15:30.111Z,0
2023-02-15T17:20:31.552Z,7.5
2023-02-15T17:25:30.112Z,2.5
2023-02-15T17:30:30.158Z,10
2023-02-15T17:35:30.114Z,15
2023-02-15T17:40:30.107Z,10
2023-02-15T17:45:30.194Z,5
2023-02-15T17:50:30.126Z,7.5
2023-02-15T17:55:30.123Z,25
2023-02-15T18:00:30.105Z,40
2023-02-15T18:05:30.114Z,45
2023-02-15T18:10:30.121Z,67.5
2023-02-15T18:15:30.116Z,62.5
2023-02-15T18:20:30.135Z,57.5
2023-02-15T18:25:30.113Z,55
2023-02-15T18:30:30.163Z,40
2023-02-15T18:35:30.139Z,32.5
2023-02-15T18:40:30.110Z,62.5
2023-02-15T18:45:30.120Z,52.5
2023-02-15T18:50:30.128Z,35
2023-02-15T18:55:30.108Z,40
2023-02-15T19:00:30.101Z,65
2023-02-15T19:05:30.114Z,65
2023-02-15T19:10:30.103Z,65
2023-02-15T19:15:30.136Z,52.5
2023-02-15T19:20:30.099Z,65
2023-02-15T19:25:30.114Z,55
2023-02-15T19:30:30.253Z,60
2023-02-15T19:35:30.117Z,57.5
2023-02-15T19:40:30.116Z,60
2023-02-15T19:45:30.121Z,60
2023-02-15T19:50:30.094Z,47.5
2023-02-15T19:55:30.107Z,55
2023-02-15T20:00:30.090Z,67.5
2023-02-15T20:05:30.124Z,55
2023-02-15T20:10:30.119Z,60
2023-02-15T20:15:30.164Z,67.5
2023-02-15T20:20:30.109Z,70
2023-02-15T20:25:30.112Z,65
2023-02-15T20:30:30.171Z,52.5
2023-02-15T20:35:30.123Z,72.5
2023-02-15T20:40:30.118Z,62.5
2023-02-15T20:45:30.126Z,60
2023-02-15T20:50:30.103Z,35
2023-02-15T20:55:30.109Z,47.5
2023-02-15T21:00:30.103Z,37.5
2023-02-15T21:05:30.108Z,42.5
2023-02-15T21:10:30.110Z,25
2023-02-15T21:15:30.116Z,45
2023-02-15T21:20:30.119Z,52.5
2023-02-15T21:25:30.120Z,35
2023-02-15T21:30:30.156Z,42.5
2023-02-15T21:35:30.110Z,50
2023-02-15T21:40:30.117Z,40
2023-02-15T21:45:30.116Z,52.5
2023-02-15T21:50:30.116Z,50
2023-02-15T21:55:30.117Z,32.5
2023-02-15T22:00:30.127Z,60
2023-02-15T22:05:30.122Z,55
2023-02-15T22:10:30.101Z,55
2023-02-15T22:15:30.118Z,57.5
2023-02-15T22:20:30.108Z,57.5
2023-02-15T22:25:30.113Z,65
2023-02-15T22:30:30.183Z,50
2023-02-15T22:35:30.109Z,60
2023-02-15T22:40:30.114Z,62.5
2023-02-15T22:45:30.145Z,50
2023-02-15T22:50:30.105Z,65
2023-02-15T22:55:30.110Z,52.5
2023-02-15T23:00:30.099Z,60
2023-02-15T23:05:30.190Z,37.5
2023-02-15T23:10:30.104Z,62.5
2023-02-15T23:15:30.103Z,85
2023-02-15T23:20:30.105Z,120
2023-02-15T23:25:30.105Z,87.5
2023-02-15T23:30:30.225Z,85
2023-02-15T23:35:30.119Z,92.5
2023-02-15T23:40:30.108Z,85
2023-02-15T23:45:30.108Z,50
2023-02-15T23:50:30.122Z,70
2023-02-15T23:55:30.108Z,25
